createdAt,value
2022-12-18T00:00:32.045Z,83.73
2022-12-18T00:02:33.605Z,83.21
2022-12-18T00:04:35.024Z,83.62
2022-12-18T00:06:36.710Z,83.50
2022-12-18T00:08:38.401Z,83.63
2022-12-18T00:10:39.779Z,83.57
2022-12-18T00:12:41.179Z,83.87
2022-12-18T00:14:43.166Z,83.78
2022-12-18T00:16:46.363Z,83.58
2022-12-18T00:18:49.972Z,83.79
2022-12-18T00:20:51.342Z,83.69
2022-12-18T00:22:53.603Z,84.23
2022-12-18T00:24:54.978Z,84.15
2022-12-18T00:26:56.337Z,84.01
2022-12-18T00:29:02.874Z,83.51
2022-12-18T00:31:13.506Z,83.74
2022-12-18T00:33:14.932Z,83.37
2022-12-18T00:35:16.335Z,83.46
2022-12-18T00:37:20.208Z,83.49
2022-12-18T00:39:22.019Z,83.50
2022-12-18T00:41:42.309Z,83.52
2022-12-18T00:43:43.730Z,84.24
2022-12-18T00:45:45.308Z,84.10
2022-12-18T00:47:47.031Z,84.12
2022-12-18T00:49:48.371Z,83.92
2022-12-18T00:51:50.246Z,83.43
2022-12-18T00:53:51.831Z,83.94
2022-12-18T00:55:53.178Z,84.17
2022-12-18T00:57:54.620Z,83.37
2022-12-18T00:59:55.966Z,83.52
2022-12-18T01:01:57.487Z,83.30
2022-12-18T01:04:01.036Z,83.10
2022-12-18T01:06:10.690Z,83.89
2022-12-18T01:08:12.096Z,84.07
2022-12-18T01:10:14.484Z,84.10
2022-12-18T01:12:15.927Z,83.62
2022-12-18T01:14:17.328Z,83.16
2022-12-18T01:16:19.116Z,83.37
2022-12-18T01:18:20.494Z,83.03
2022-12-18T01:20:21.951Z,83.63
2022-12-18T01:22:23.336Z,84.25
2022-12-18T01:24:24.842Z,83.70
2022-12-18T01:26:28.275Z,83.63
2022-12-18T01:28:29.622Z,83.53
2022-12-18T01:30:31.016Z,83.47
2022-12-18T01:32:32.939Z,83.71
2022-12-18T01:34:36.924Z,83.14
2022-12-18T01:36:39.940Z,83.39
2022-12-18T01:38:41.412Z,82.75
2022-12-18T01:40:42.797Z,83.40
2022-12-18T01:42:44.151Z,83.20
2022-12-18T01:44:56.288Z,83.67
2022-12-18T01:46:57.682Z,83.52
2022-12-18T01:49:01.671Z,83.18
2022-12-18T01:51:03.414Z,83.22
2022-12-18T01:53:10.927Z,83.07
2022-12-18T01:55:13.416Z,83.49
2022-12-18T01:57:15.267Z,83.02
2022-12-18T01:59:17.300Z,83.66
2022-12-18T02:01:44.413Z,82.62
2022-12-18T02:04:11.390Z,83.15
2022-12-18T02:09:18.651Z,83.91
2022-12-18T02:11:34.211Z,83.93
2022-12-18T02:14:04.945Z,83.76
2022-12-18T02:16:31.312Z,83.44
2022-12-18T02:18:36.504Z,83.46
2022-12-18T02:20:46.646Z,83.09
2022-12-18T02:23:01.856Z,82.91
2022-12-18T02:25:21.491Z,83.01
2022-12-18T02:27:23.580Z,83.15
2022-12-18T02:29:30.563Z,83.35
2022-12-18T02:31:37.799Z,83.38
2022-12-18T02:33:41.337Z,82.94
2022-12-18T02:35:45.093Z,82.55
2022-12-18T02:37:48.123Z,83.35
2022-12-18T02:39:52.200Z,83.06
2022-12-18T02:41:53.660Z,82.66
2022-12-18T02:44:00.877Z,83.49
2022-12-18T02:46:26.266Z,83.22
2022-12-18T02:48:33.550Z,83.03
2022-12-18T02:50:49.753Z,83.16
2022-12-18T02:53:11.226Z,83.20
2022-12-18T02:55:31.415Z,83.78
2022-12-18T02:57:54.348Z,83.50
2022-12-18T03:00:07.284Z,83.57
2022-12-18T03:02:20.530Z,83.88
2022-12-18T03:04:37.941Z,83.42
2022-12-18T03:07:04.382Z,83.43
2022-12-18T03:09:10.112Z,84.36
2022-12-18T03:11:14.202Z,83.95
2022-12-18T03:13:43.216Z,83.95
2022-12-18T03:15:48.904Z,84.17
2022-12-18T03:17:57.631Z,83.91
2022-12-18T03:20:04.481Z,83.58
2022-12-18T03:22:08.452Z,84.17
2022-12-18T03:24:12.064Z,83.68
2022-12-18T03:26:19.970Z,83.91
2022-12-18T03:28:23.651Z,83.72
2022-12-18T03:30:27.791Z,83.12
2022-12-18T03:32:33.929Z,84.03
2022-12-18T03:34:38.909Z,83.94
2022-12-18T03:36:40.350Z,84.29
2022-12-18T03:38:42.007Z,83.48
2022-12-18T03:41:01.006Z,84.12
2022-12-18T03:43:25.274Z,84.89
2022-12-18T03:45:35.291Z,84.20
2022-12-18T03:47:56.936Z,84.73
2022-12-18T03:50:16.881Z,84.41
2022-12-18T03:52:41.755Z,84.66
2022-12-18T03:54:44.344Z,85.36
2022-12-18T03:56:55.897Z,84.39
2022-12-18T03:58:59.930Z,84.68
2022-12-18T04:01:06.268Z,84.41
2022-12-18T04:03:09.900Z,84.46
2022-12-18T04:05:12.888Z,84.14
2022-12-18T04:07:15.082Z,84.54
2022-12-18T04:09:16.577Z,84.08
2022-12-18T04:11:18.055Z,84.39
2022-12-18T04:13:24.590Z,84.37
2022-12-18T04:15:26.285Z,84.53
2022-12-18T04:17:27.770Z,84.29
2022-12-18T04:19:29.147Z,84.82
2022-12-18T04:21:30.501Z,84.44
2022-12-18T04:23:31.970Z,84.13
2022-12-18T04:25:33.303Z,84.78
2022-12-18T04:27:34.986Z,84.29
2022-12-18T04:29:36.355Z,84.29
2022-12-18T04:31:37.776Z,84.28
2022-12-18T04:33:39.843Z,84.82
2022-12-18T04:35:42.317Z,84.98
2022-12-18T04:37:43.700Z,85.29
2022-12-18T04:39:45.117Z,84.72
2022-12-18T04:41:46.579Z,85.08
2022-12-18T04:43:47.956Z,84.82
2022-12-18T04:45:49.362Z,85.58
2022-12-18T04:47:50.716Z,85.83
2022-12-18T04:49:52.208Z,85.27
2022-12-18T04:51:53.979Z,85.59
2022-12-18T04:53:55.751Z,85.49
2022-12-18T04:56:08.324Z,85.38
2022-12-18T04:58:09.724Z,85.40
2022-12-18T05:00:11.701Z,85.57
2022-12-18T05:02:13.114Z,85.16
2022-12-18T05:04:14.563Z,85.84
2022-12-18T05:06:15.969Z,85.39
2022-12-18T05:08:17.460Z,85.53
2022-12-18T05:10:18.932Z,85.20
2022-12-18T05:12:20.843Z,85.49
2022-12-18T05:14:22.245Z,85.04
2022-12-18T05:16:23.690Z,85.05
2022-12-18T05:18:26.056Z,85.87
2022-12-18T05:20:28.303Z,85.48
2022-12-18T05:22:29.840Z,85.35
2022-12-18T05:24:31.240Z,85.41
2022-12-18T05:26:32.611Z,85.33
2022-12-18T05:28:35.432Z,85.65
2022-12-18T05:30:36.805Z,85.40
2022-12-18T05:32:38.963Z,84.96
2022-12-18T05:34:40.344Z,85.33
2022-12-18T05:36:41.696Z,85.92
2022-12-18T05:38:43.363Z,85.52
2022-12-18T05:40:44.900Z,85.71
2022-12-18T05:42:46.264Z,85.57
2022-12-18T05:44:47.687Z,85.67
2022-12-18T05:46:49.152Z,85.12
2022-12-18T05:48:51.717Z,85.03
2022-12-18T05:50:53.109Z,84.57
2022-12-18T05:52:54.463Z,84.49
2022-12-18T05:54:55.902Z,84.62
2022-12-18T05:56:58.067Z,84.97
2022-12-18T05:58:59.427Z,84.99
2022-12-18T06:01:09.034Z,84.19
2022-12-18T06:03:12.031Z,84.41
2022-12-18T06:05:13.527Z,84.00
2022-12-18T06:07:14.894Z,84.66
2022-12-18T06:09:16.366Z,84.35
2022-12-18T06:11:21.836Z,84.73
2022-12-18T06:13:23.294Z,84.69
2022-12-18T06:15:25.391Z,84.76
2022-12-18T06:17:33.687Z,83.82
2022-12-18T06:19:35.120Z,84.46
2022-12-18T06:21:36.535Z,84.19
2022-12-18T06:23:38.984Z,83.68
2022-12-18T06:25:40.787Z,82.97
2022-12-18T06:27:42.288Z,83.62
2022-12-18T06:29:44.544Z,83.35
2022-12-18T06:31:46.538Z,83.55
2022-12-18T06:33:48.016Z,82.37
2022-12-18T06:35:49.504Z,82.32
2022-12-18T06:37:51.018Z,82.14
2022-12-18T06:39:53.703Z,81.98
2022-12-18T06:41:55.113Z,82.71
2022-12-18T06:43:59.725Z,82.80
2022-12-18T06:46:02.441Z,81.90
2022-12-18T06:48:04.051Z,82.15
2022-12-18T06:50:06.468Z,82.30
2022-12-18T06:52:07.856Z,82.91
2022-12-18T06:54:09.373Z,83.41
2022-12-18T06:56:11.202Z,82.33
2022-12-18T06:58:12.651Z,82.75
2022-12-18T07:00:14.503Z,82.64
2022-12-18T07:02:15.962Z,81.87
2022-12-18T07:04:18.176Z,82.79
2022-12-18T07:06:21.357Z,82.10
2022-12-18T07:08:22.794Z,82.58
2022-12-18T07:10:24.187Z,82.26
2022-12-18T07:12:25.543Z,82.93
2022-12-18T07:14:26.957Z,81.91
2022-12-18T07:16:29.548Z,82.30
2022-12-18T07:18:31.260Z,81.27
2022-12-18T07:20:32.619Z,80.67
2022-12-18T07:22:34.130Z,81.95
2022-12-18T07:24:35.813Z,80.87
2022-12-18T07:26:37.536Z,82.18
2022-12-18T07:28:40.695Z,81.30
2022-12-18T07:30:42.067Z,79.77
2022-12-18T07:32:43.525Z,80.00
2022-12-18T07:34:44.939Z,80.08
2022-12-18T07:36:46.308Z,80.33
2022-12-18T07:38:48.969Z,79.93
2022-12-18T07:40:50.355Z,79.39
2022-12-18T07:42:51.752Z,80.77
2022-12-18T07:44:53.140Z,79.72
2022-12-18T07:46:54.491Z,79.11
2022-12-18T07:48:55.883Z,78.65
2022-12-18T07:51:06.109Z,78.97
2022-12-18T07:53:07.476Z,79.39
2022-12-18T07:55:09.248Z,78.90
2022-12-18T07:57:33.759Z,78.76
2022-12-18T07:59:31.971Z,78.62
2022-12-18T08:01:34.780Z,77.51
2022-12-18T08:03:37.462Z,78.57
2022-12-18T08:05:39.036Z,77.94
2022-12-18T08:07:40.611Z,77.84
2022-12-18T08:09:42.031Z,76.37
2022-12-18T08:11:44.203Z,77.08
2022-12-18T08:13:45.574Z,74.87
2022-12-18T08:15:47.136Z,75.43
2022-12-18T08:17:48.523Z,76.63
2022-12-18T08:19:49.919Z,76.15
2022-12-18T08:21:51.343Z,76.06
2022-12-18T08:23:54.786Z,75.93
2022-12-18T08:25:56.137Z,75.95
2022-12-18T08:27:57.710Z,75.76
2022-12-18T08:29:59.094Z,75.24
2022-12-18T08:32:00.705Z,74.37
2022-12-18T08:34:02.190Z,75.47
2022-12-18T08:36:05.048Z,74.70
2022-12-18T08:38:06.427Z,74.31
2022-12-18T08:40:08.635Z,74.42
2022-12-18T08:42:29.308Z,74.07
2022-12-18T08:44:39.400Z,72.97
2022-12-18T08:46:42.988Z,74.21
2022-12-18T08:48:44.639Z,73.84
2022-12-18T08:50:58.073Z,72.76
2022-12-18T08:52:59.708Z,72.58
2022-12-18T08:55:01.219Z,71.97
2022-12-18T08:57:03.067Z,73.21
2022-12-18T08:59:05.554Z,71.86
2022-12-18T09:01:10.255Z,72.81
2022-12-18T09:03:16.795Z,72.44
2022-12-18T09:05:18.388Z,72.50
2022-12-18T09:07:19.753Z,72.14
2022-12-18T09:09:21.129Z,71.07
2022-12-18T09:11:27.246Z,71.56
2022-12-18T09:13:29.538Z,71.38
2022-12-18T09:15:30.902Z,69.98
2022-12-18T09:17:32.407Z,70.38
2022-12-18T09:19:33.824Z,69.50
2022-12-18T09:21:41.202Z,70.17
2022-12-18T09:23:56.517Z,69.59
2022-12-18T09:26:01.235Z,70.38
2022-12-18T09:28:12.015Z,69.20
2022-12-18T09:30:13.823Z,68.56
2022-12-18T09:32:21.987Z,67.90
2022-12-18T09:34:28.755Z,68.03
2022-12-18T09:36:30.164Z,69.75
2022-12-18T09:38:32.179Z,67.34
2022-12-18T09:40:37.276Z,66.41
2022-12-18T09:45:05.076Z,66.68
2022-12-18T09:47:34.225Z,65.08
2022-12-18T09:49:42.097Z,68.08
2022-12-18T09:51:52.214Z,66.91
2022-12-18T09:54:00.011Z,66.02
2022-12-18T09:56:04.954Z,66.93
2022-12-18T09:58:18.104Z,66.65
2022-12-18T10:00:22.302Z,67.53
2022-12-18T10:02:26.019Z,64.60
2022-12-18T10:04:32.677Z,66.25
2022-12-18T10:06:34.781Z,65.02
2022-12-18T10:08:45.232Z,66.75
2022-12-18T10:10:53.187Z,66.83
2022-12-18T10:13:09.746Z,65.79
2022-12-18T10:15:27.867Z,66.37
2022-12-18T10:17:44.229Z,66.29
2022-12-18T10:20:00.401Z,64.38
2022-12-18T10:22:04.560Z,64.58
2022-12-18T10:24:21.259Z,65.10
2022-12-18T10:26:22.737Z,65.02
2022-12-18T10:28:26.105Z,64.14
2022-12-18T10:30:27.632Z,63.17
2022-12-18T10:32:31.108Z,62.66
2022-12-18T10:34:32.812Z,62.61
2022-12-18T10:36:34.208Z,61.90
2022-12-18T10:38:36.061Z,60.89
2022-12-18T10:40:51.233Z,60.98
2022-12-18T10:43:12.750Z,59.01
2022-12-18T10:45:17.776Z,60.97
2022-12-18T10:47:20.258Z,59.94
2022-12-18T10:49:26.261Z,61.60
2022-12-18T10:51:31.889Z,59.78
2022-12-18T10:53:36.061Z,58.88
2022-12-18T10:55:40.694Z,61.62
2022-12-18T10:57:42.465Z,62.39
2022-12-18T10:59:53.232Z,63.17
2022-12-18T11:01:58.801Z,62.52
2022-12-18T11:04:03.346Z,62.41
2022-12-18T11:06:13.844Z,61.49
2022-12-18T11:08:24.271Z,61.65
2022-12-18T11:10:31.146Z,61.28
2022-12-18T11:12:32.520Z,61.64
2022-12-18T11:14:46.837Z,60.62
2022-12-18T11:17:23.747Z,60.47
2022-12-18T11:19:35.699Z,60.08
2022-12-18T11:21:42.239Z,60.24
2022-12-18T11:23:51.342Z,61.75
2022-12-18T11:25:55.961Z,59.27
2022-12-18T11:28:27.658Z,62.15
2022-12-18T11:30:37.105Z,57.59
2022-12-18T11:32:40.320Z,59.40
2022-12-18T11:34:52.521Z,59.60
2022-12-18T11:37:00.512Z,61.33
2022-12-18T11:39:13.091Z,60.63
2022-12-18T11:42:01.197Z,56.85
2022-12-18T11:44:06.587Z,58.25
2022-12-18T11:46:20.228Z,56.81
2022-12-18T11:48:44.615Z,57.42
2022-12-18T11:50:55.661Z,56.84
2022-12-18T11:53:01.503Z,56.29
2022-12-18T11:55:12.961Z,58.29
2022-12-18T11:57:21.123Z,53.30
2022-12-18T11:59:28.397Z,54.78
2022-12-18T12:01:31.211Z,53.61
2022-12-18T12:03:42.175Z,54.73
2022-12-18T12:06:04.348Z,55.22
2022-12-18T12:08:11.881Z,55.08
2022-12-18T12:10:18.483Z,54.53
2022-12-18T12:12:54.699Z,54.93
2022-12-18T12:15:14.117Z,55.00
2022-12-18T12:17:43.219Z,56.42
2022-12-18T12:20:09.657Z,56.25
2022-12-18T12:22:45.391Z,52.30
2022-12-18T12:25:10.586Z,53.48
2022-12-18T12:27:25.760Z,52.74
2022-12-18T12:29:33.068Z,53.87
2022-12-18T12:31:48.537Z,54.15
2022-12-18T12:34:19.213Z,53.62
2022-12-18T12:36:38.467Z,54.52
2022-12-18T12:39:09.295Z,51.52
2022-12-18T12:41:33.989Z,52.59
2022-12-18T12:43:49.492Z,54.25
2022-12-18T12:46:20.823Z,54.01
2022-12-18T12:48:23.739Z,54.21
2022-12-18T12:50:25.774Z,55.64
2022-12-18T12:52:41.838Z,54.79
2022-12-18T12:54:44.671Z,54.13
2022-12-18T12:56:51.545Z,53.98
2022-12-18T12:59:07.788Z,53.69
2022-12-18T13:01:25.043Z,55.04
2022-12-18T13:03:41.997Z,55.88
2022-12-18T13:06:01.478Z,53.98
2022-12-18T13:08:07.239Z,53.26
2022-12-18T13:10:13.536Z,52.97
2022-12-18T13:12:36.308Z,53.94
2022-12-18T13:14:40.576Z,54.12
2022-12-18T13:16:41.959Z,53.58
2022-12-18T13:18:53.193Z,54.18
2022-12-18T13:20:59.773Z,52.82
2022-12-18T13:23:25.588Z,54.11
2022-12-18T13:25:36.478Z,53.29
2022-12-18T13:27:58.170Z,54.75
2022-12-18T13:29:59.611Z,56.23
2022-12-18T13:32:01.937Z,56.31
2022-12-18T13:34:38.696Z,57.14
2022-12-18T13:36:40.380Z,57.72
2022-12-18T13:38:44.163Z,56.77
2022-12-18T13:40:45.496Z,56.14
2022-12-18T13:43:06.426Z,58.16
2022-12-18T13:45:37.950Z,58.75
2022-12-18T13:47:44.109Z,59.62
2022-12-18T13:49:47.524Z,60.01
2022-12-18T13:51:51.548Z,59.93
2022-12-18T13:54:15.471Z,60.76
2022-12-18T13:56:28.547Z,60.45
2022-12-18T13:58:30.980Z,59.07
2022-12-18T14:00:32.659Z,60.47
2022-12-18T14:02:35.897Z,59.31
2022-12-18T14:04:37.348Z,59.88
2022-12-18T14:06:39.881Z,60.46
2022-12-18T14:08:44.501Z,55.84
2022-12-18T14:10:49.959Z,57.27
2022-12-18T14:13:00.893Z,56.77
2022-12-18T14:15:06.891Z,58.08
2022-12-18T14:17:12.308Z,58.80
2022-12-18T14:19:18.499Z,56.58
2022-12-18T14:21:24.483Z,58.14
2022-12-18T14:23:37.870Z,57.35
2022-12-18T14:25:39.524Z,56.19
2022-12-18T14:27:46.643Z,56.54
2022-12-18T14:29:48.118Z,58.39
2022-12-18T14:32:25.018Z,58.07
2022-12-18T14:34:27.806Z,59.18
2022-12-18T14:36:30.290Z,60.10
2022-12-18T14:38:37.057Z,59.65
2022-12-18T14:40:38.554Z,60.29
2022-12-18T14:42:39.972Z,61.51
2022-12-18T14:45:05.297Z,60.81
2022-12-18T14:47:02.780Z,60.01
2022-12-18T14:49:33.520Z,61.36
2022-12-18T14:51:35.493Z,60.29
2022-12-18T14:53:53.978Z,60.78
2022-12-18T14:55:56.039Z,61.42
2022-12-18T14:57:58.399Z,59.71
2022-12-18T15:00:17.796Z,59.20
2022-12-18T15:02:22.087Z,59.36
2022-12-18T15:04:30.241Z,60.40
2022-12-18T15:06:35.525Z,57.84
2022-12-18T15:08:37.936Z,56.55
2022-12-18T15:10:48.690Z,56.58
2022-12-18T15:12:56.124Z,54.95
2022-12-18T15:14:59.983Z,56.90
2022-12-18T15:17:06.001Z,56.69
2022-12-18T15:19:09.061Z,56.09
2022-12-18T15:21:12.278Z,57.90
2022-12-18T15:23:45.955Z,57.42
2022-12-18T15:25:49.892Z,57.70
2022-12-18T15:27:51.328Z,56.88
2022-12-18T15:30:08.798Z,57.60
2022-12-18T15:32:20.849Z,55.95
2022-12-18T15:34:24.371Z,55.16
2022-12-18T15:36:30.339Z,57.47
2022-12-18T15:38:32.729Z,58.54
2022-12-18T15:40:34.304Z,58.76
2022-12-18T15:42:54.560Z,58.87
2022-12-18T15:44:55.948Z,57.13
2022-12-18T15:46:58.039Z,56.96
2022-12-18T15:49:02.760Z,56.88
2022-12-18T15:51:06.152Z,55.96
2022-12-18T15:53:09.791Z,55.61
2022-12-18T15:55:37.709Z,55.82
2022-12-18T15:57:39.602Z,56.60
2022-12-18T15:59:41.159Z,57.05
2022-12-18T16:01:44.374Z,56.97
2022-12-18T16:03:46.119Z,56.29
2022-12-18T16:05:47.779Z,56.90
2022-12-18T16:07:49.212Z,56.09
2022-12-18T16:09:50.667Z,56.70
2022-12-18T16:11:52.143Z,55.96
2022-12-18T16:13:53.515Z,57.54
2022-12-18T16:15:54.898Z,57.04
2022-12-18T16:17:56.416Z,57.01
2022-12-18T16:19:57.783Z,59.28
2022-12-18T16:21:59.786Z,58.29
2022-12-18T16:24:01.236Z,57.09
2022-12-18T16:26:02.634Z,56.33
2022-12-18T16:28:04.044Z,58.92
2022-12-18T16:30:06.183Z,57.43
2022-12-18T16:32:07.546Z,57.16
2022-12-18T16:34:20.275Z,58.30
2022-12-18T16:36:24.077Z,57.58
2022-12-18T16:38:25.449Z,58.85
2022-12-18T16:40:26.933Z,58.54
2022-12-18T16:42:28.359Z,58.98
2022-12-18T16:44:29.747Z,60.58
2022-12-18T16:46:31.441Z,60.52
2022-12-18T16:48:35.799Z,60.67
2022-12-18T16:50:37.204Z,60.82
2022-12-18T16:52:39.000Z,60.68
2022-12-18T16:54:40.531Z,61.16
2022-12-18T16:56:42.933Z,61.48
2022-12-18T16:58:44.345Z,62.04
2022-12-18T17:00:46.663Z,61.76
2022-12-18T17:02:48.403Z,62.11
2022-12-18T17:04:49.996Z,63.57
2022-12-18T17:06:54.178Z,64.18
2022-12-18T17:09:05.173Z,64.52
2022-12-18T17:11:09.612Z,65.14
2022-12-18T17:13:11.093Z,65.06
2022-12-18T17:15:12.424Z,66.40
2022-12-18T17:17:22.635Z,67.07
2022-12-18T17:19:25.012Z,67.17
2022-12-18T17:21:26.456Z,67.76
2022-12-18T17:23:29.192Z,68.41
2022-12-18T17:25:30.539Z,68.75
2022-12-18T17:27:31.955Z,69.75
2022-12-18T17:29:33.432Z,69.92
2022-12-18T17:31:35.176Z,69.88
2022-12-18T17:33:36.602Z,69.79
2022-12-18T17:35:37.985Z,70.00
2022-12-18T17:37:39.365Z,70.84
2022-12-18T17:39:40.948Z,70.61
2022-12-18T17:41:42.297Z,71.12
2022-12-18T17:43:45.746Z,71.08
2022-12-18T17:45:47.153Z,71.33
2022-12-18T17:47:48.542Z,71.93
2022-12-18T17:49:49.948Z,71.73
2022-12-18T17:51:51.576Z,71.79
2022-12-18T17:53:53.620Z,71.67
2022-12-18T17:55:56.028Z,71.82
2022-12-18T17:57:57.461Z,71.86
2022-12-18T17:59:58.861Z,71.49
2022-12-18T18:02:00.355Z,71.28
2022-12-18T18:04:04.564Z,71.65
2022-12-18T18:06:06.592Z,71.90
2022-12-18T18:08:08.241Z,71.67
2022-12-18T18:10:09.951Z,71.37
2022-12-18T18:12:29.866Z,71.45
2022-12-18T18:14:31.952Z,71.43
2022-12-18T18:16:36.419Z,70.55
2022-12-18T18:18:39.624Z,71.19
2022-12-18T18:20:41.008Z,71.25
2022-12-18T18:22:43.127Z,71.61
2022-12-18T18:24:44.694Z,70.98
2022-12-18T18:26:46.980Z,71.00
2022-12-18T18:28:48.992Z,71.02
2022-12-18T18:30:50.503Z,71.20
2022-12-18T18:32:53.062Z,71.21
2022-12-18T18:34:54.977Z,71.14
2022-12-18T18:37:01.385Z,71.47
2022-12-18T18:39:03.033Z,70.73
2022-12-18T18:41:05.540Z,71.32
2022-12-18T18:43:06.973Z,71.21
2022-12-18T18:45:09.079Z,71.69
2022-12-18T18:47:10.443Z,71.13
2022-12-18T18:49:13.586Z,71.41
2022-12-18T18:51:21.111Z,70.95
2022-12-18T18:53:23.035Z,71.58
2022-12-18T18:55:25.827Z,71.38
2022-12-18T18:57:30.273Z,71.36
2022-12-18T18:59:32.366Z,71.38
2022-12-18T19:01:33.993Z,71.72
2022-12-18T19:03:37.730Z,72.27
2022-12-18T19:05:42.982Z,71.54
2022-12-18T19:07:45.878Z,71.96
2022-12-18T19:09:51.810Z,72.18
2022-12-18T19:12:11.565Z,72.20
2022-12-18T19:14:39.437Z,72.27
2022-12-18T19:16:42.726Z,72.30
2022-12-18T19:18:44.553Z,71.73
2022-12-18T19:21:05.252Z,72.06
2022-12-18T19:23:06.632Z,71.98
2022-12-18T19:25:09.208Z,71.66
2022-12-18T19:27:10.968Z,71.23
2022-12-18T19:29:14.583Z,71.71
2022-12-18T19:31:24.197Z,71.51
2022-12-18T19:33:45.068Z,71.43
2022-12-18T19:35:46.780Z,71.57
2022-12-18T19:37:48.338Z,71.20
2022-12-18T19:39:49.763Z,70.64
2022-12-18T19:41:52.418Z,71.17
2022-12-18T19:43:53.930Z,70.77
2022-12-18T19:45:55.944Z,71.02
2022-12-18T19:48:02.554Z,71.24
2022-12-18T19:50:06.204Z,71.01
2022-12-18T19:52:07.629Z,70.48
2022-12-18T19:54:12.111Z,71.09
2022-12-18T19:56:20.109Z,70.43
2022-12-18T19:58:21.798Z,70.33
2022-12-18T20:00:24.341Z,70.09
2022-12-18T20:02:25.950Z,70.17
2022-12-18T20:04:27.735Z,70.25
2022-12-18T20:06:55.497Z,70.95
2022-12-18T20:09:01.154Z,70.38
2022-12-18T20:11:02.750Z,70.56
2022-12-18T20:13:04.419Z,70.14
2022-12-18T20:15:06.259Z,71.10
2022-12-18T20:17:07.702Z,70.04
2022-12-18T20:19:12.097Z,69.74
2022-12-18T20:21:14.246Z,69.33
2022-12-18T20:23:15.837Z,69.50
2022-12-18T20:25:20.241Z,69.54
2022-12-18T20:27:22.011Z,69.08
2022-12-18T20:29:25.503Z,69.26
2022-12-18T20:31:27.009Z,69.11
2022-12-18T20:33:29.487Z,69.41
2022-12-18T20:35:37.340Z,69.78
2022-12-18T20:37:40.661Z,69.47
2022-12-18T20:39:46.307Z,69.20
2022-12-18T20:41:47.894Z,69.37
2022-12-18T20:43:49.819Z,68.98
2022-12-18T20:45:51.236Z,69.23
2022-12-18T20:47:59.472Z,69.54
2022-12-18T20:50:00.926Z,69.27
2022-12-18T20:52:03.021Z,70.04
2022-12-18T20:54:08.013Z,68.97
2022-12-18T20:56:21.947Z,68.70
2022-12-18T20:58:23.806Z,68.97
2022-12-18T21:00:25.285Z,69.06
2022-12-18T21:02:27.002Z,69.28
2022-12-18T21:04:28.692Z,69.66
2022-12-18T21:06:30.333Z,70.05
2022-12-18T21:08:32.197Z,69.54
2022-12-18T21:10:33.607Z,70.25
2022-12-18T21:12:42.450Z,69.54
2022-12-18T21:14:54.894Z,69.83
2022-12-18T21:16:57.415Z,69.84
2022-12-18T21:18:59.103Z,69.82
2022-12-18T21:21:00.614Z,70.32
2022-12-18T21:23:08.916Z,70.31
2022-12-18T21:25:17.887Z,70.49
2022-12-18T21:27:19.648Z,70.89
2022-12-18T21:29:25.727Z,71.48
2022-12-18T21:31:29.905Z,71.87
2022-12-18T21:33:31.391Z,71.39
2022-12-18T21:35:32.726Z,72.83
2022-12-18T21:37:34.177Z,72.94
2022-12-18T21:39:35.596Z,73.93
2022-12-18T21:41:55.326Z,73.16
2022-12-18T21:44:06.539Z,73.52
2022-12-18T21:46:07.980Z,73.27
2022-12-18T21:48:09.393Z,74.23
2022-12-18T21:50:10.828Z,75.34
2022-12-18T21:52:12.232Z,75.04
2022-12-18T21:54:13.623Z,74.47
2022-12-18T21:56:15.038Z,73.28
2022-12-18T21:58:16.391Z,73.40
2022-12-18T22:00:48.315Z,72.86
2022-12-18T22:03:15.590Z,73.23
2022-12-18T22:05:11.533Z,73.79
2022-12-18T22:07:15.216Z,72.96
2022-12-18T22:09:19.904Z,73.28
2022-12-18T22:11:21.287Z,72.60
2022-12-18T22:13:23.790Z,72.98
2022-12-18T22:15:25.164Z,73.15
2022-12-18T22:17:51.315Z,72.84
2022-12-18T22:20:01.079Z,73.09
2022-12-18T22:22:02.563Z,72.37
2022-12-18T22:24:06.630Z,72.63
2022-12-18T22:26:10.642Z,71.97
2022-12-18T22:28:30.586Z,73.01
2022-12-18T22:30:31.971Z,73.12
2022-12-18T22:32:35.586Z,72.63
2022-12-18T22:34:38.473Z,72.85
2022-12-18T22:36:46.053Z,73.66
2022-12-18T22:38:47.494Z,74.25
2022-12-18T22:40:48.839Z,73.95
2022-12-18T22:42:50.727Z,74.29
2022-12-18T22:44:53.987Z,74.15
2022-12-18T22:47:06.487Z,74.98
2022-12-18T22:49:13.204Z,74.85
2022-12-18T22:51:16.166Z,75.62
2022-12-18T22:53:17.732Z,75.93
2022-12-18T22:55:19.342Z,76.38
2022-12-18T22:57:22.188Z,75.99
2022-12-18T22:59:24.117Z,76.70
2022-12-18T23:01:27.963Z,77.05
2022-12-18T23:03:31.314Z,77.14
2022-12-18T23:05:32.717Z,77.05
2022-12-18T23:07:34.132Z,78.08
2022-12-18T23:09:35.647Z,77.81
2022-12-18T23:11:37.028Z,78.27
2022-12-18T23:13:39.017Z,78.05
2022-12-18T23:15:43.387Z,79.23
2022-12-18T23:17:44.798Z,78.47
2022-12-18T23:19:49.166Z,78.15
2022-12-18T23:21:51.566Z,78.42
2022-12-18T23:23:52.932Z,79.05
2022-12-18T23:26:00.938Z,79.46
2022-12-18T23:28:02.337Z,79.73
2022-12-18T23:30:04.456Z,79.81
2022-12-18T23:32:08.292Z,80.46
2022-12-18T23:34:12.364Z,80.38
2022-12-18T23:36:14.562Z,80.49
2022-12-18T23:38:15.975Z,81.11
2022-12-18T23:40:17.947Z,81.40
2022-12-18T23:42:19.375Z,81.58
2022-12-18T23:44:22.439Z,80.33
2022-12-18T23:46:32.153Z,81.01
2022-12-18T23:48:33.628Z,81.63
2022-12-18T23:50:35.746Z,81.16
2022-12-18T23:52:37.209Z,81.42
2022-12-18T23:54:39.350Z,81.93
2022-12-18T23:56:40.781Z,80.81
2022-12-18T23:58:43.260Z,81.50
